KAPY

Zapata County Airport

Zapata, Texas, USA
METAR KAPY 170235Z AUTO 33008G14KT 10SM OVC017 11/07 A3023 RMK AO2 T01150077
Observed Flight Rules
Oct-17 @ 02:35 UTC (35 minutes ago) Marginal Visual Flight Rules
Wind Visibility Clouds
330° at 8 knots
 Gusting to 14 knots
10 miles
  • Overcast at 1,700' AGL
Temperatures Readings
Current 12°C / 54°F
Dewpoint 8°C / 46°F
Humidity 77%
Altimeter 30.23" Hg
Pressure 1024 hPa
Elevation 129
METAR KAPY 170235Z AUTO 33008G14KT 10SM OVC017 11/07 A3023 RMK AO2 T01150077
Observed Flight Rules
Oct-17 @ 02:35 UTC
(35 minutes ago)
MVFR
Wind Visibility
330° at 8 knots
 Gusting to 14 knots
10 miles
Clouds
  • Overcast at 1,700' AGL
Temperature Dewpoint
12°C / 54°F 8°C / 46°F
Humidity Altimeter Pressure
77% 30.23" Hg 1024 hPa